Weather at Conakry International Airport

Public forecast

Using degrees Celsius for public forecast. Weather courtesy of forecast.io.

Current aviation weather report (METAR) for Conakry International Airport

Retrieved 2020/10/19 23:00 UTC (1 hour ago):

GUCY 192300Z 09006KT 5000 -TSRA FEW023CB BKN100 24/23 Q1013 CB/N/NE NOSIG

Aviation forecast (TAF) for Conakry International Airport

Retrieved 2020-10-20 00:00 UTC (23 minutes ago):

TAF GUCY 192300Z 2000/2106 26006KT 9999 SCT016 SCT120 TEMPO 2000/2004 16012KT 7000 -TSRA BKN013 FEW023CB BKN100 BECMG 2006/2010 VRB02KT